Time;durP1;ratioP1;P1;durP2;ratioP2;P2;SDS_P1;SDS_P2;PMS_P1;PMS_P2;Temp;Humidity;BMP_temperature;BMP_pressure;BME280_temperature;BME280_humidity;BME280_pressure;Samples;Min_cycle;Max_cycle;Signal;HPM_P1;HPM_P2
2021/07/14 00:02:25;;;;;;;14.82;10.80;;;666.40;1715.20;;;;;;4991731;28;20073;-57
2021/07/14 00:04:51;;;;;;;16.13;11.07;;;666.40;1689.60;;;;;;4991879;28;20023;-57
2021/07/14 00:07:17;;;;;;;13.52;11.23;;;666.40;1689.60;;;;;;4991813;28;20511;-57
2021/07/14 00:09:42;;;;;;;13.23;11.10;;;666.30;1689.60;;;;;;4991842;28;20035;-58
2021/07/14 00:12:10;;;;;;;16.30;11.23;;;666.30;1715.20;;;;;;4991797;28;20038;-56
2021/07/14 00:22:57;;;;;;;13.88;10.82;;;666.30;1715.20;;;;;;4911924;29;20043;-57
2021/07/14 00:25:23;;;;;;;13.07;10.60;;;666.20;1689.60;;;;;;4902406;29;20051;-58
2021/07/14 00:27:51;;;;;;;14.50;10.82;;;666.10;1715.20;;;;;;4904126;29;20021;-57
2021/07/14 00:30:23;;;;;;;14.55;10.85;;;666.20;1715.20;;;;;;4902602;29;20036;-60
2021/07/14 00:32:49;;;;;;;14.18;10.65;;;666.20;1715.20;;;;;;4902111;29;20052;-60
2021/07/14 00:35:15;;;;;;;14.00;10.60;;;666.20;1689.60;;;;;;4902322;29;20035;-60
2021/07/14 00:37:41;;;;;;;14.50;10.43;;;666.20;1715.20;;;;;;4903280;29;20040;-60
2021/07/14 00:40:08;;;;;;;13.40;10.68;;;666.20;1689.60;;;;;;4903819;29;20033;-60
2021/07/14 00:42:34;;;;;;;14.00;10.90;;;666.20;1689.60;;;;;;4902883;29;20033;-60
2021/07/14 00:45:00;;;;;;;13.55;10.52;;;666.20;1689.60;;;;;;4906914;29;20398;-60
2021/07/14 00:47:32;;;;;;;14.15;11.10;;;666.20;1715.20;;;;;;4907130;29;20038;-58
2021/07/14 00:49:59;;;;;;;14.65;11.15;;;666.20;1715.20;;;;;;4910632;28;20028;-59
2021/07/14 00:52:24;;;;;;;14.88;11.43;;;666.20;1715.20;;;;;;4995160;28;20137;-59
2021/07/14 00:54:51;;;;;;;15.23;10.45;;;666.20;1689.60;;;;;;4995920;28;20153;-61
2021/07/14 00:57:19;;;;;;;12.73;10.40;;;666.20;1715.20;;;;;;4981079;28;20030;-60
2021/07/14 00:59:45;;;;;;;11.98;10.18;;;666.20;1715.20;;;;;;4976141;28;20051;-60
2021/07/14 01:02:12;;;;;;;15.48;10.85;;;666.10;1715.20;;;;;;4977413;28;20033;-60
2021/07/14 01:04:44;;;;;;;14.48;10.68;;;666.10;1715.20;;;;;;4977231;28;20082;-60
2021/07/14 01:07:37;;;;;;;15.32;11.07;;;666.00;1715.20;;;;;;4977608;28;20042;-60
2021/07/14 01:10:14;;;;;;;16.77;11.18;;;666.00;1715.20;;;;;;4977277;28;20022;-60
2021/07/14 01:12:55;;;;;;;14.70;11.07;;;665.90;1740.80;;;;;;4977386;28;20093;-60
2021/07/14 01:15:22;;;;;;;13.23;10.48;;;665.80;1766.40;;;;;;4977258;28;20046;-60
2021/07/14 01:17:57;;;;;;;14.68;10.93;;;665.70;1766.40;;;;;;4977196;28;20038;-60
2021/07/14 01:20:29;;;;;;;14.30;11.05;;;665.60;1766.40;;;;;;4977172;28;20038;-61
2021/07/14 01:23:22;;;;;;;13.90;11.40;;;640.90;1766.40;;;;;;4977155;28;20026;-60
2021/07/14 01:26:11;;;;;;;13.47;10.57;;;640.80;1766.40;;;;;;4977257;28;20037;-60
2021/07/14 01:28:43;;;;;;;15.10;11.07;;;640.80;1792.00;;;;;;4977385;28;20607;-61
2021/07/14 01:31:13;;;;;;;14.43;10.85;;;640.60;1792.00;;;;;;4976854;28;20113;-61
2021/07/14 01:33:41;;;;;;;14.60;11.30;;;640.80;1792.00;;;;;;4977049;28;20521;-61
2021/07/14 01:36:15;;;;;;;14.88;10.80;;;640.80;1792.00;;;;;;4976740;28;20129;-60
2021/07/14 01:38:42;;;;;;;12.48;10.65;;;640.80;1792.00;;;;;;4977021;28;20022;-61
2021/07/14 01:41:09;;;;;;;13.45;11.80;;;640.80;1792.00;;;;;;4977046;28;20027;-61
2021/07/14 01:43:43;;;;;;;16.73;11.32;;;640.80;1792.00;;;;;;4976847;28;20046;-59
2021/07/14 01:46:11;;;;;;;17.70;11.50;;;640.90;1792.00;;;;;;4976782;28;20034;-58
2021/07/14 01:48:40;;;;;;;16.27;12.20;;;640.90;1817.60;;;;;;4976901;28;20487;-57
2021/07/14 01:51:07;;;;;;;18.23;13.13;;;640.80;1817.60;;;;;;4976705;28;20059;-59
2021/07/14 01:53:35;;;;;;;22.33;14.93;;;640.80;1817.60;;;;;;4976127;28;20027;-58
2021/07/14 01:56:03;;;;;;;23.42;15.38;;;640.60;1817.60;;;;;;4976287;28;20065;-58
2021/07/14 01:58:30;;;;;;;29.65;16.35;;;640.80;1792.00;;;;;;4976595;28;20047;-59
2021/07/14 02:00:56;;;;;;;25.83;16.83;;;640.80;1792.00;;;;;;4976276;28;20050;-58
2021/07/14 02:06:00;;;;;;;25.10;16.35;;;640.60;1792.00;;;;;;4976099;28;20023;-58
2021/07/14 02:08:28;;;;;;;21.27;15.23;;;640.80;1792.00;;;;;;4976253;28;20030;-57
2021/07/14 02:10:55;;;;;;;22.25;14.00;;;640.80;1792.00;;;;;;4976448;28;20125;-59
2021/07/14 02:13:24;;;;;;;20.75;14.35;;;640.80;1792.00;;;;;;4976544;28;20030;-61
2021/07/14 02:16:01;;;;;;;24.67;13.70;;;640.90;1792.00;;;;;;4976356;28;20465;-59
2021/07/14 02:18:37;;;;;;;18.65;13.50;;;640.90;1792.00;;;;;;4976409;28;20472;-60
2021/07/14 02:21:03;;;;;;;20.75;13.25;;;640.90;1792.00;;;;;;4976270;28;20023;-60
2021/07/14 02:23:29;;;;;;;16.95;11.60;;;640.90;1766.40;;;;;;4975734;28;20476;-60
2021/07/14 02:25:54;;;;;;;16.85;12.15;;;640.90;1766.40;;;;;;4976042;28;20030;-61
2021/07/14 02:28:20;;;;;;;22.52;13.32;;;640.80;1792.00;;;;;;4975866;28;20027;-60
2021/07/14 02:30:46;;;;;;;19.40;13.20;;;640.80;1792.00;;;;;;4975243;28;20106;-60
2021/07/14 02:33:14;;;;;;;17.75;13.35;;;640.60;1817.60;;;;;;4976301;28;20046;-60
2021/07/14 02:35:43;;;;;;;18.92;13.32;;;640.60;1843.20;;;;;;4975851;28;20085;-60
2021/07/14 02:38:12;;;;;;;20.15;13.90;;;640.50;1868.80;;;;;;4975909;28;20023;-60
2021/07/14 02:40:46;;;;;;;20.52;13.50;;;640.40;1868.80;;;;;;4975785;28;20058;-60
2021/07/14 02:43:14;;;;;;;22.13;13.68;;;640.40;1894.40;;;;;;4975565;28;20472;-60
2021/07/14 02:45:46;;;;;;;21.35;13.70;;;640.40;1894.40;;;;;;4975756;28;20038;-60
2021/07/14 02:48:12;;;;;;;18.33;13.45;;;640.40;1868.80;;;;;;4975700;28;20023;-60
2021/07/14 02:50:38;;;;;;;17.20;13.45;;;640.40;1894.40;;;;;;4975964;28;20102;-60
2021/07/14 02:53:15;;;;;;;21.80;14.00;;;640.40;1868.80;;;;;;4975425;28;20031;-58
2021/07/14 02:55:46;;;;;;;17.42;13.73;;;640.40;1868.80;;;;;;4975442;28;20084;-57
2021/07/14 02:58:12;;;;;;;19.65;13.43;;;640.40;1868.80;;;;;;4975312;28;20069;-59
2021/07/14 03:00:40;;;;;;;18.60;13.25;;;640.30;1843.20;;;;;;4975268;28;20054;-58
2021/07/14 03:03:09;;;;;;;20.60;14.23;;;640.30;1843.20;;;;;;4975534;28;20372;-58
2021/07/14 03:05:35;;;;;;;19.83;14.23;;;640.30;1868.80;;;;;;4974870;28;20496;-57
2021/07/14 03:08:05;;;;;;;19.23;14.10;;;640.30;1843.20;;;;;;4975269;28;20026;-58
2021/07/14 03:10:31;;;;;;;21.13;14.47;;;640.20;1843.20;;;;;;4975015;28;20035;-57
2021/07/14 03:13:03;;;;;;;20.65;14.07;;;640.20;1843.20;;;;;;4975161;28;20470;-57
2021/07/14 03:15:30;;;;;;;21.45;14.48;;;640.20;1843.20;;;;;;4975095;28;20485;-57
2021/07/14 03:17:57;;;;;;;22.15;14.25;;;640.30;1843.20;;;;;;4974995;28;20465;-57
2021/07/14 03:20:23;;;;;;;22.67;14.80;;;640.20;1843.20;;;;;;4974999;28;20033;-57
2021/07/14 03:22:51;;;;;;;21.63;14.43;;;640.10;1868.80;;;;;;4974930;28;20045;-57
2021/07/14 03:25:18;;;;;;;22.83;14.82;;;640.20;1868.80;;;;;;4974843;28;20113;-57
2021/07/14 03:27:46;;;;;;;22.83;14.25;;;640.20;1868.80;;;;;;4974881;28;20538;-58
2021/07/14 03:30:13;;;;;;;24.05;14.63;;;640.20;1868.80;;;;;;4975075;28;20473;-57
2021/07/14 03:32:39;;;;;;;20.77;14.75;;;640.20;1868.80;;;;;;4974508;28;20039;-58
2021/07/14 03:35:06;;;;;;;20.73;14.57;;;640.30;1868.80;;;;;;4974925;28;20049;-58
2021/07/14 03:37:32;;;;;;;21.27;15.13;;;640.30;1868.80;;;;;;4974886;28;20027;-58
2021/07/14 03:40:02;;;;;;;22.65;14.77;;;640.30;1868.80;;;;;;4974760;28;20038;-58
2021/07/14 03:42:29;;;;;;;24.50;14.57;;;640.30;1868.80;;;;;;4974750;28;20026;-57
2021/07/14 03:44:57;;;;;;;23.02;14.95;;;640.40;1868.80;;;;;;4974957;28;20034;-57
2021/07/14 03:47:25;;;;;;;23.58;15.45;;;640.40;1894.40;;;;;;4974931;28;20098;-57
2021/07/14 03:49:52;;;;;;;19.13;14.65;;;640.30;1920.00;;;;;;4974658;28;20034;-57
2021/07/14 03:52:20;;;;;;;23.90;15.57;;;640.40;1920.00;;;;;;4974700;28;20047;-58
2021/07/14 03:54:47;;;;;;;21.60;14.65;;;640.40;1945.60;;;;;;4974590;28;20050;-57
2021/07/14 03:57:13;;;;;;;25.85;15.85;;;640.40;1945.60;;;;;;4974858;28;20042;-58
2021/07/14 03:59:40;;;;;;;24.35;15.43;;;640.40;1920.00;;;;;;4974643;28;20046;-57
2021/07/14 04:02:10;;;;;;;22.27;14.90;;;640.40;1920.00;;;;;;4974546;28;20027;-57
2021/07/14 04:04:36;;;;;;;22.25;15.10;;;640.40;1920.00;;;;;;4974740;28;20082;-57
2021/07/14 04:07:13;;;;;;;23.25;15.07;;;640.40;1920.00;;;;;;4974756;28;20105;-57
2021/07/14 04:09:44;;;;;;;20.70;15.18;;;640.40;1920.00;;;;;;4974638;28;20027;-58
2021/07/14 04:12:10;;;;;;;19.27;14.73;;;640.40;1920.00;;;;;;4974596;28;20082;-57
2021/07/14 04:14:35;;;;;;;22.27;15.60;;;640.40;1920.00;;;;;;4974643;28;20507;-58
2021/07/14 04:17:01;;;;;;;21.15;15.07;;;640.40;1920.00;;;;;;4974450;28;20496;-57
2021/07/14 04:19:27;;;;;;;22.25;14.10;;;640.50;1920.00;;;;;;4978281;28;20047;-57
2021/07/14 04:21:53;;;;;;;19.23;14.27;;;640.50;1894.40;;;;;;4978305;28;20023;-58
2021/07/14 04:24:19;;;;;;;22.33;14.38;;;640.60;1894.40;;;;;;4978183;28;20033;-58
2021/07/14 04:26:45;;;;;;;22.05;14.20;;;640.60;1894.40;;;;;;4978166;28;20117;-58
2021/07/14 04:29:12;;;;;;;20.02;14.00;;;640.80;1894.40;;;;;;4978558;28;20376;-58
2021/07/14 04:31:40;;;;;;;20.75;13.98;;;640.90;1868.80;;;;;;4978279;28;20432;-58
2021/07/14 04:34:06;;;;;;;19.92;14.10;;;640.90;1868.80;;;;;;4977914;28;20038;-57
2021/07/14 04:36:37;;;;;;;21.40;14.48;;;665.60;1868.80;;;;;;4977764;28;20026;-58
2021/07/14 04:39:04;;;;;;;22.45;14.43;;;665.60;1868.80;;;;;;4978009;28;20388;-59
2021/07/14 04:41:30;;;;;;;21.90;15.10;;;665.80;1868.80;;;;;;4978464;28;20023;-57
2021/07/14 04:43:59;;;;;;;27.10;15.98;;;665.90;1868.80;;;;;;4977842;28;20461;-57
2021/07/14 04:46:25;;;;;;;26.98;17.20;;;666.00;1843.20;;;;;;4978030;28;20444;-57
2021/07/14 04:48:51;;;;;;;29.90;16.20;;;666.10;1843.20;;;;;;4977868;28;20027;-58
2021/07/14 04:51:16;;;;;;;27.02;15.52;;;666.10;1817.60;;;;;;4977481;28;20035;-57
2021/07/14 04:53:42;;;;;;;23.05;14.73;;;666.20;1817.60;;;;;;4977616;28;20109;-58
2021/07/14 04:56:08;;;;;;;18.70;13.60;;;666.20;1817.60;;;;;;4977846;28;20484;-58
2021/07/14 04:58:34;;;;;;;20.60;13.27;;;666.20;1817.60;;;;;;4977741;28;20089;-58
2021/07/14 05:00:59;;;;;;;17.08;12.85;;;666.40;1792.00;;;;;;4977411;28;20058;-57
2021/07/14 05:03:25;;;;;;;18.17;12.98;;;666.40;1766.40;;;;;;4977411;28;20039;-57
2021/07/14 05:05:51;;;;;;;16.30;11.85;;;666.40;1766.40;;;;;;4977299;28;20035;-57
2021/07/14 05:08:17;;;;;;;17.20;11.90;;;691.20;1766.40;;;;;;4977356;28;20491;-58
2021/07/14 05:10:43;;;;;;;19.08;11.93;;;691.30;1740.80;;;;;;4977272;28;20023;-58
2021/07/14 05:13:09;;;;;;;15.52;11.45;;;691.20;1740.80;;;;;;4977549;28;20038;-58
2021/07/14 05:15:35;;;;;;;19.10;11.68;;;691.30;1740.80;;;;;;4977317;28;20389;-59
2021/07/14 05:18:00;;;;;;;17.35;10.90;;;691.40;1740.80;;;;;;4977024;28;20030;-58
2021/07/14 05:20:26;;;;;;;15.40;11.18;;;691.50;1715.20;;;;;;4977569;28;20085;-59
2021/07/14 05:22:52;;;;;;;15.70;11.05;;;691.60;1715.20;;;;;;4977203;28;20038;-57
2021/07/14 05:25:18;;;;;;;19.77;10.70;;;691.70;1689.60;;;;;;4977169;28;20090;-57
2021/07/14 05:27:43;;;;;;;17.17;11.30;;;691.70;1689.60;;;;;;4977064;28;20038;-58
2021/07/14 05:30:10;;;;;;;19.17;11.02;;;692.00;1689.60;;;;;;4977235;28;20019;-57
2021/07/14 05:32:36;;;;;;;14.30;10.57;;;692.10;1638.40;;;;;;4976975;28;20035;-59
2021/07/14 05:35:04;;;;;;;15.07;10.23;;;716.80;1664.00;;;;;;4977154;28;20455;-58
2021/07/14 05:37:30;;;;;;;19.02;10.63;;;716.90;1638.40;;;;;;4976955;28;20045;-57
2021/07/14 05:39:55;;;;;;;12.85;10.10;;;717.20;1638.40;;;;;;4976839;28;20476;-57
2021/07/14 05:42:21;;;;;;;19.08;10.00;;;717.40;1587.20;;;;;;4976734;28;20035;-57
2021/07/14 05:44:47;;;;;;;13.57;9.88;;;717.70;1587.20;;;;;;4976767;28;20023;-57
2021/07/14 05:47:12;;;;;;;13.32;10.40;;;742.40;1612.80;;;;;;4976637;28;20472;-56
2021/07/14 05:49:38;;;;;;;14.18;9.73;;;742.60;1612.80;;;;;;4976716;28;20023;-56
2021/07/14 05:52:04;;;;;;;12.13;10.25;;;742.60;1612.80;;;;;;4976543;28;20173;-57
2021/07/14 05:54:30;;;;;;;14.98;10.40;;;742.70;1612.80;;;;;;4976524;28;20121;-57
2021/07/14 05:56:56;;;;;;;15.60;10.52;;;742.90;1587.20;;;;;;4976718;28;20130;-58
2021/07/14 05:59:21;;;;;;;15.95;11.00;;;742.90;1612.80;;;;;;4976513;28;20038;-57
2021/07/14 06:01:47;;;;;;;15.60;11.40;;;742.80;1612.80;;;;;;4976571;28;20065;-57
2021/07/14 06:04:13;;;;;;;16.38;11.20;;;742.90;1587.20;;;;;;4976632;28;20513;-58
2021/07/14 06:06:38;;;;;;;15.43;11.52;;;742.90;1587.20;;;;;;4958998;28;20039;-58
2021/07/14 06:09:04;;;;;;;14.40;11.20;;;742.90;1587.20;;;;;;4976141;28;20023;-57
2021/07/14 06:11:30;;;;;;;16.08;11.07;;;743.10;1612.80;;;;;;4976204;28;20354;-58
2021/07/14 06:13:55;;;;;;;16.48;12.25;;;743.20;1612.80;;;;;;4976546;28;20038;-58
2021/07/14 06:16:21;;;;;;;16.20;11.98;;;768.00;1612.80;;;;;;4976258;28;20030;-58
2021/07/14 06:18:47;;;;;;;17.80;11.90;;;768.00;1587.20;;;;;;4976572;28;20050;-58
2021/07/14 06:21:13;;;;;;;15.82;11.02;;;768.20;1536.00;;;;;;4976180;28;20452;-58
2021/07/14 06:23:39;;;;;;;15.70;10.60;;;768.10;1510.40;;;;;;4975989;28;20034;-58
2021/07/14 06:26:04;;;;;;;16.42;10.50;;;768.20;1484.80;;;;;;4975991;28;20023;-58
2021/07/14 06:28:30;;;;;;;13.43;10.73;;;768.20;1459.20;;;;;;4976047;28;20042;-57
2021/07/14 06:30:56;;;;;;;16.02;10.80;;;768.40;1433.60;;;;;;4976048;28;20519;-57
2021/07/14 06:33:22;;;;;;;15.63;10.38;;;768.60;1433.60;;;;;;4976166;28;20377;-57
2021/07/14 06:35:51;;;;;;;14.98;10.38;;;768.80;1408.00;;;;;;4975769;28;20085;-57
2021/07/14 06:38:17;;;;;;;15.00;10.60;;;793.60;1408.00;;;;;;4975763;28;20026;-57
2021/07/14 06:40:43;;;;;;;13.50;9.73;;;793.80;1408.00;;;;;;4975224;28;20018;-56
2021/07/14 06:43:14;;;;;;;16.42;10.57;;;793.90;1408.00;;;;;;4957829;28;20041;-57
2021/07/14 06:45:40;;;;;;;14.43;10.13;;;793.90;1408.00;;;;;;4975873;28;20030;-57
2021/07/14 06:48:06;;;;;;;16.75;10.40;;;793.90;1408.00;;;;;;4975662;28;20065;-57
2021/07/14 06:50:32;;;;;;;16.98;10.18;;;794.00;1408.00;;;;;;4975618;28;20055;-56
2021/07/14 06:52:59;;;;;;;16.25;10.73;;;794.00;1408.00;;;;;;4975466;28;20049;-57
2021/07/14 06:55:24;;;;;;;16.10;10.50;;;793.90;1408.00;;;;;;4975330;28;20030;-56
2021/07/14 06:57:50;;;;;;;15.50;10.98;;;793.90;1408.00;;;;;;4975387;28;20377;-57
2021/07/14 07:00:16;;;;;;;14.38;10.90;;;793.90;1408.00;;;;;;4975229;28;20046;-56
2021/07/14 07:02:44;;;;;;;18.42;11.40;;;794.10;1382.40;;;;;;4973508;28;20140;-55
2021/07/14 07:05:10;;;;;;;19.60;10.82;;;794.10;1408.00;;;;;;4975012;28;20169;-56
2021/07/14 07:07:36;;;;;;;18.80;11.15;;;794.40;1382.40;;;;;;4973566;28;20049;-55
2021/07/14 07:10:03;;;;;;;14.55;10.30;;;794.40;1382.40;;;;;;4973845;28;20508;-55
2021/07/14 07:12:29;;;;;;;14.75;10.40;;;794.30;1356.80;;;;;;4973914;28;20381;-56
2021/07/14 07:14:55;;;;;;;13.85;9.93;;;794.20;1356.80;;;;;;4973968;28;20034;-56
2021/07/14 07:17:21;;;;;;;12.98;9.77;;;794.30;1356.80;;;;;;4974089;28;20027;-56
2021/07/14 07:19:46;;;;;;;15.10;10.25;;;819.20;1356.80;;;;;;4973982;28;20026;-55
2021/07/14 07:22:12;;;;;;;12.90;9.45;;;794.50;1356.80;;;;;;4973558;28;20057;-57
2021/07/14 07:24:38;;;;;;;13.25;10.20;;;819.20;1382.40;;;;;;4973554;28;20395;-55
2021/07/14 07:27:08;;;;;;;15.15;9.75;;;819.20;1356.80;;;;;;4973894;28;20023;-59
2021/07/14 07:29:38;;;;;;;14.55;9.65;;;794.30;1356.80;;;;;;4973587;28;20019;-56
2021/07/14 07:32:06;;;;;;;16.05;9.70;;;794.30;1382.40;;;;;;4974210;28;20042;-56
2021/07/14 07:34:32;;;;;;;14.25;9.43;;;819.20;1356.80;;;;;;4973250;28;20022;-56
2021/07/14 07:37:00;;;;;;;13.18;9.73;;;819.40;1331.20;;;;;;4973277;28;20086;-55
2021/07/14 07:39:27;;;;;;;11.15;9.50;;;819.60;1305.60;;;;;;4973428;28;20077;-56
2021/07/14 07:41:53;;;;;;;16.58;9.45;;;819.70;1305.60;;;;;;4973617;28;20037;-56
2021/07/14 07:44:19;;;;;;;13.43;9.43;;;820.00;1280.00;;;;;;4973726;28;20030;-57
2021/07/14 07:46:45;;;;;;;15.77;8.57;;;844.80;1280.00;;;;;;4973387;28;20034;-57
2021/07/14 07:49:11;;;;;;;10.50;8.80;;;844.90;1254.40;;;;;;4972439;28;20027;-58
2021/07/14 07:51:37;;;;;;;14.20;8.50;;;845.10;1228.80;;;;;;4970366;28;20141;-56
2021/07/14 07:54:03;;;;;;;13.77;8.80;;;845.20;1203.20;;;;;;4975693;28;20469;-57
2021/07/14 07:56:31;;;;;;;12.10;8.30;;;845.30;1228.80;;;;;;4976294;28;20110;-56
2021/07/14 07:58:58;;;;;;;12.40;8.20;;;845.40;1228.80;;;;;;4976385;28;20027;-59
2021/07/14 08:01:24;;;;;;;13.43;8.40;;;845.50;1228.80;;;;;;4975420;28;20086;-58
2021/07/14 08:03:50;;;;;;;13.00;8.18;;;845.60;1203.20;;;;;;4976182;28;20070;-58
2021/07/14 08:06:15;;;;;;;11.73;7.75;;;870.40;1177.60;;;;;;4975896;28;20019;-57
2021/07/14 08:08:41;;;;;;;12.25;8.35;;;870.60;1152.00;;;;;;4975875;28;20027;-58
2021/07/14 08:11:08;;;;;;;12.00;7.60;;;870.60;1177.60;;;;;;4975063;28;20046;-57
2021/07/14 08:13:34;;;;;;;12.68;8.10;;;870.50;1152.00;;;;;;4973970;28;20365;-58
2021/07/14 08:16:01;;;;;;;9.88;8.02;;;870.40;1177.60;;;;;;4976334;28;20075;-58
2021/07/14 08:18:26;;;;;;;13.35;7.82;;;870.40;1203.20;;;;;;4977074;28;20031;-58
2021/07/14 08:20:53;;;;;;;10.63;7.82;;;870.40;1177.60;;;;;;4976821;28;20038;-59
2021/07/14 08:23:20;;;;;;;12.15;7.65;;;870.60;1177.60;;;;;;4975618;28;20031;-57
2021/07/14 08:25:47;;;;;;;12.07;7.50;;;870.80;1152.00;;;;;;4957915;28;20167;-59
2021/07/14 08:28:14;;;;;;;12.05;7.53;;;871.00;1152.00;;;;;;4975465;28;20504;-59
2021/07/14 08:30:40;;;;;;;13.45;7.90;;;871.20;1126.40;;;;;;4975618;28;20374;-59
2021/07/14 08:33:06;;;;;;;11.50;8.15;;;896.00;1126.40;;;;;;4975685;28;20054;-59
2021/07/14 08:35:32;;;;;;;11.10;7.85;;;896.10;1152.00;;;;;;4957612;28;20027;-59
2021/07/14 08:37:58;;;;;;;11.85;7.95;;;896.30;1126.40;;;;;;4975332;28;20085;-60
2021/07/14 08:40:24;;;;;;;13.68;8.45;;;896.20;1126.40;;;;;;4975395;28;20027;-60
2021/07/14 08:42:52;;;;;;;11.25;8.35;;;896.70;1152.00;;;;;;4975305;28;20023;-59
2021/07/14 08:45:20;;;;;;;12.30;8.38;;;896.80;1152.00;;;;;;4973558;28;20409;-59
2021/07/14 08:47:47;;;;;;;10.57;8.23;;;921.60;1152.00;;;;;;4975917;28;20027;-60
2021/07/14 08:50:13;;;;;;;11.73;7.93;;;896.80;1126.40;;;;;;4974112;28;20030;-60
2021/07/14 08:52:42;;;;;;;10.07;7.85;;;921.70;1100.80;;;;;;4976201;28;20485;-59
2021/07/14 08:55:11;;;;;;;13.93;7.88;;;921.90;1075.20;;;;;;4975876;28;20035;-59
2021/07/14 08:57:37;;;;;;;13.45;8.05;;;922.10;1100.80;;;;;;4977299;28;20038;-60
2021/07/14 09:00:09;;;;;;;12.48;7.80;;;922.20;1100.80;;;;;;4977311;28;20043;-60
2021/07/14 09:02:38;;;;;;;11.35;8.05;;;921.80;1100.80;;;;;;4976219;28;20229;-59
2021/07/14 09:05:05;;;;;;;12.20;8.20;;;921.70;1049.60;;;;;;4976035;28;20042;-60
2021/07/14 09:07:31;;;;;;;12.85;8.25;;;921.70;1100.80;;;;;;4966895;28;20065;-59
2021/07/14 09:09:58;;;;;;;15.48;8.45;;;921.90;1100.80;;;;;;4976288;28;20059;-61
2021/07/14 09:12:57;;;;;;;14.90;8.95;;;922.40;1126.40;;;;;;4975608;28;20050;-57
2021/07/14 09:15:27;;;;;;;10.30;8.07;;;947.20;1126.40;;;;;;4898548;29;20419;-58
2021/07/14 09:18:01;;;;;;;13.75;8.15;;;947.50;1075.20;;;;;;4917182;29;20083;-60
2021/07/14 09:20:32;;;;;;;8.50;6.47;;;947.50;1100.80;;;;;;4917809;29;20040;-60
2021/07/14 09:23:05;;;;;;;10.50;7.28;;;947.60;972.80;;;;;;4917262;29;20040;-60
2021/07/14 09:25:59;;;;;;;13.27;6.37;;;947.60;947.20;;;;;;4899722;29;20595;-62
2021/07/14 09:28:32;;;;;;;9.18;6.30;;;947.30;947.20;;;;;;4895900;29;20036;-57
2021/07/14 09:31:07;;;;;;;13.27;7.10;;;947.20;947.20;;;;;;4895841;29;20033;-57
2021/07/14 09:33:33;;;;;;;11.57;6.78;;;922.40;947.20;;;;;;4898220;29;20372;-61
2021/07/14 09:36:00;;;;;;;12.02;6.18;;;922.20;921.60;;;;;;4917126;29;20158;-57
2021/07/14 09:38:34;;;;;;;8.80;6.63;;;922.00;921.60;;;;;;4917057;29;20546;-58
2021/07/14 09:41:00;;;;;;;13.98;7.35;;;921.90;947.20;;;;;;4917211;29;20056;-58
2021/07/14 09:43:32;;;;;;;13.05;7.45;;;921.90;972.80;;;;;;4916975;29;20028;-63
2021/07/14 09:46:00;;;;;;;18.92;8.00;;;921.70;1024.00;;;;;;4912558;29;20040;-60
2021/07/14 09:48:37;;;;;;;11.82;8.05;;;921.60;1075.20;;;;;;4900513;29;20033;-63
2021/07/14 09:51:12;;;;;;;10.10;7.90;;;896.80;1075.20;;;;;;4897600;29;20032;-61
2021/07/14 09:53:46;;;;;;;11.13;7.80;;;896.80;1049.60;;;;;;4958860;28;20480;-62
2021/07/14 09:56:13;;;;;;;10.63;8.52;;;896.80;1075.20;;;;;;4976119;28;20110;-58
2021/07/14 09:58:40;;;;;;;14.38;7.88;;;896.30;1152.00;;;;;;4976002;28;20027;-58
2021/07/14 10:01:07;;;;;;;12.60;7.35;;;896.10;1152.00;;;;;;4991974;28;20129;-61
2021/07/14 10:03:38;;;;;;;13.00;7.50;;;871.20;1152.00;;;;;;4995734;28;20026;-62
2021/07/14 10:06:05;;;;;;;12.30;7.68;;;871.10;1100.80;;;;;;4975871;28;20037;-57
2021/07/14 10:08:32;;;;;;;13.32;7.13;;;870.90;1126.40;;;;;;4975819;28;20073;-59
2021/07/14 10:11:27;;;;;;;11.90;7.32;;;870.80;1100.80;;;;;;4975957;28;20034;-58
2021/07/14 10:13:56;;;;;;;12.40;7.30;;;870.80;1177.60;;;;;;4901011;28;20064;-57
2021/07/14 10:16:23;;;;;;;10.30;7.25;;;870.60;1177.60;;;;;;4916073;29;20522;-59
2021/07/14 10:19:00;;;;;;;12.27;7.13;;;870.60;1203.20;;;;;;4916930;29;20032;-57
2021/07/14 10:21:27;;;;;;;9.15;6.35;;;870.60;1152.00;;;;;;4925136;29;20063;-58
2021/07/14 10:23:54;;;;;;;10.75;6.50;;;870.90;1075.20;;;;;;4934800;29;20032;-57
2021/07/14 10:26:20;;;;;;;11.40;6.60;;;871.20;1075.20;;;;;;4921897;29;20035;-59
2021/07/14 10:28:49;;;;;;;9.80;6.70;;;896.00;1075.20;;;;;;4933372;29;20020;-59
2021/07/14 10:31:15;;;;;;;12.68;7.40;;;871.30;1075.20;;;;;;4932776;29;20043;-61
2021/07/14 10:33:43;;;;;;;15.43;7.47;;;871.20;1126.40;;;;;;4915253;29;20703;-60
2021/07/14 10:36:10;;;;;;;8.80;7.18;;;871.20;1126.40;;;;;;4932672;28;20473;-58
2021/07/14 10:38:38;;;;;;;14.18;7.15;;;871.00;1126.40;;;;;;4933189;29;20038;-59
2021/07/14 10:41:07;;;;;;;12.80;6.72;;;871.00;1126.40;;;;;;4931804;29;20419;-60
2021/07/14 10:43:34;;;;;;;12.40;6.22;;;871.00;1075.20;;;;;;4934085;29;20036;-59
2021/07/14 10:46:00;;;;;;;13.30;6.10;;;871.20;1024.00;;;;;;4933216;29;20351;-63
2021/07/14 10:48:26;;;;;;;10.60;6.38;;;896.00;1024.00;;;;;;4932607;29;20031;-56
2021/07/14 10:50:54;;;;;;;11.82;7.00;;;896.30;1024.00;;;;;;4978558;28;20122;-59
2021/07/14 10:53:21;;;;;;;11.88;6.70;;;896.30;1049.60;;;;;;4992889;28;20037;-59
2021/07/14 10:55:49;;;;;;;12.40;6.60;;;896.60;1049.60;;;;;;4992977;28;20464;-60
2021/07/14 10:58:17;;;;;;;13.63;6.32;;;921.80;1100.80;;;;;;4992787;28;20030;-57
2021/07/14 11:00:45;;;;;;;15.20;5.93;;;921.90;998.40;;;;;;4977779;28;20042;-57
2021/07/14 11:03:43;;;;;;;10.70;6.38;;;922.00;972.80;;;;;;4973295;28;20023;-60
2021/07/14 11:06:10;;;;;;;12.43;6.10;;;922.40;947.20;;;;;;4904236;29;20178;-59
2021/07/14 11:08:48;;;;;;;8.68;6.03;;;947.20;947.20;;;;;;4905180;29;20148;-59
2021/07/14 11:11:19;;;;;;;11.38;6.00;;;947.60;921.60;;;;;;4904972;29;20040;-60
2021/07/14 11:13:51;;;;;;;10.40;6.28;;;947.70;896.00;;;;;;4903975;29;20719;-61
2021/07/14 11:16:34;;;;;;;12.18;6.40;;;948.00;896.00;;;;;;4911918;29;20355;-61
2021/07/14 11:19:12;;;;;;;12.43;6.43;;;948.00;870.40;;;;;;4907126;29;20040;-57
2021/07/14 11:21:55;;;;;;;10.75;6.60;;;972.80;921.60;;;;;;4905223;29;20039;-60
2021/07/14 11:24:36;;;;;;;11.70;6.93;;;973.00;921.60;;;;;;4905614;29;20056;-58
2021/07/14 11:27:25;;;;;;;11.60;6.80;;;948.10;921.60;;;;;;4903611;29;20055;-59
2021/07/14 11:30:15;;;;;;;9.50;6.85;;;972.80;947.20;;;;;;4904729;29;20549;-61
2021/07/14 11:32:43;;;;;;;10.95;6.90;;;972.80;972.80;;;;;;4904634;29;20032;-61
2021/07/14 11:35:13;;;;;;;11.85;7.78;;;947.60;998.40;;;;;;4904610;28;20027;-60
2021/07/14 11:37:42;;;;;;;12.68;7.40;;;947.80;998.40;;;;;;4900968;29;20047;-61
2021/07/14 11:40:20;;;;;;;12.27;7.68;;;947.90;972.80;;;;;;4904090;29;20028;-60
2021/07/14 11:42:59;;;;;;;11.48;7.00;;;947.80;972.80;;;;;;4943220;28;20114;-59
2021/07/14 11:45:33;;;;;;;12.55;6.95;;;947.50;947.20;;;;;;4954227;28;20038;-61
2021/07/14 11:48:02;;;;;;;9.65;6.25;;;947.40;921.60;;;;;;4970876;28;20043;-57
2021/07/14 11:50:46;;;;;;;11.05;6.28;;;947.50;921.60;;;;;;4973213;28;20027;-61
2021/07/14 11:53:36;;;;;;;8.40;6.15;;;947.60;870.40;;;;;;4972106;28;20097;-57
2021/07/14 11:56:06;;;;;;;8.45;6.10;;;947.70;896.00;;;;;;4970911;28;20023;-58
2021/07/14 11:59:03;;;;;;;12.90;6.18;;;947.80;870.40;;;;;;4972949;28;20042;-56
2021/07/14 12:01:32;;;;;;;9.95;6.28;;;948.00;844.80;;;;;;4971651;28;20078;-56
2021/07/14 12:06:47;;;;;;;11.02;6.50;;;973.10;896.00;;;;;;4972714;28;20027;-58
2021/07/14 12:09:13;;;;;;;10.40;5.80;;;973.30;844.80;;;;;;4972093;28;20019;-62
2021/07/14 12:11:52;;;;;;;11.50;6.25;;;973.50;819.20;;;;;;4970962;28;20097;-58
2021/07/14 12:14:21;;;;;;;9.15;5.95;;;973.40;819.20;;;;;;4973811;28;20019;-57
2021/07/14 12:16:49;;;;;;;9.60;5.60;;;973.50;819.20;;;;;;4974407;28;20031;-57
2021/07/14 12:19:34;;;;;;;9.18;5.63;;;973.20;793.60;;;;;;4974598;28;20381;-60
2021/07/14 12:22:14;;;;;;;12.80;5.60;;;973.20;768.00;;;;;;4952535;28;20465;-62
2021/07/14 12:24:48;;;;;;;10.25;5.60;;;973.50;768.00;;;;;;4968472;28;20038;-61
2021/07/14 12:27:20;;;;;;;9.43;5.53;;;973.50;768.00;;;;;;4972361;28;20019;-60
2021/07/14 12:29:48;;;;;;;16.30;6.07;;;973.60;742.40;;;;;;4970606;28;20417;-57